sensor_id;sensor_type;location;lat;lon;timestamp;P1;P2;P0
64114;PMS5003;62188;35.640;139.748;2023-12-22T00:01:36;5;5;
64114;PMS5003;62188;35.640;139.748;2023-12-22T00:04:01;4;4;
64114;PMS5003;62188;35.640;139.748;2023-12-22T00:06:27;3;3;
64114;PMS5003;62188;35.640;139.748;2023-12-22T00:08:52;5;5;
64114;PMS5003;62188;35.640;139.748;2023-12-22T00:11:18;5;5;
64114;PMS5003;62188;35.640;139.748;2023-12-22T00:13:43;5;5;
64114;PMS5003;62188;35.640;139.748;2023-12-22T00:16:10;5;3;
64114;PMS5003;62188;35.640;139.748;2023-12-22T00:18:36;3;3;
64114;PMS5003;62188;35.640;139.748;2023-12-22T00:21:00;5;5;
64114;PMS5003;62188;35.640;139.748;2023-12-22T00:23:28;4;4;
64114;PMS5003;62188;35.640;139.748;2023-12-22T00:25:52;5;5;
64114;PMS5003;62188;35.640;139.748;2023-12-22T00:28:18;5;5;
64114;PMS5003;62188;35.640;139.748;2023-12-22T00:30:43;6;6;
64114;PMS5003;62188;35.640;139.748;2023-12-22T00:33:08;4;4;
64114;PMS5003;62188;35.640;139.748;2023-12-22T00:35:34;6;6;
64114;PMS5003;62188;35.640;139.748;2023-12-22T00:38:01;4;4;
64114;PMS5003;62188;35.640;139.748;2023-12-22T00:40:27;6;5;
64114;PMS5003;62188;35.640;139.748;2023-12-22T00:42:51;5;5;
64114;PMS5003;62188;35.640;139.748;2023-12-22T00:45:17;5;5;
64114;PMS5003;62188;35.640;139.748;2023-12-22T00:47:42;5;5;
64114;PMS5003;62188;35.640;139.748;2023-12-22T00:50:09;7;6;
64114;PMS5003;62188;35.640;139.748;2023-12-22T00:52:34;7;6;
64114;PMS5003;62188;35.640;139.748;2023-12-22T00:54:59;6;6;
64114;PMS5003;62188;35.640;139.748;2023-12-22T00:57:24;6;6;
64114;PMS5003;62188;35.640;139.748;2023-12-22T00:59:50;7;6;
64114;PMS5003;62188;35.640;139.748;2023-12-22T01:02:16;7;7;
64114;PMS5003;62188;35.640;139.748;2023-12-22T01:04:41;7;6;
64114;PMS5003;62188;35.640;139.748;2023-12-22T01:07:07;4;4;
64114;PMS5003;62188;35.640;139.748;2023-12-22T01:09:32;6;6;
64114;PMS5003;62188;35.640;139.748;2023-12-22T01:11:58;5;5;
64114;PMS5003;62188;35.640;139.748;2023-12-22T01:14:24;5;5;
64114;PMS5003;62188;35.640;139.748;2023-12-22T01:16:50;4;4;
64114;PMS5003;62188;35.640;139.748;2023-12-22T01:19:15;4;4;
64114;PMS5003;62188;35.640;139.748;2023-12-22T01:21:41;3;3;
64114;PMS5003;62188;35.640;139.748;2023-12-22T01:24:06;7;6;
64114;PMS5003;62188;35.640;139.748;2023-12-22T01:26:32;5;5;
64114;PMS5003;62188;35.640;139.748;2023-12-22T01:28:59;5;5;
64114;PMS5003;62188;35.640;139.748;2023-12-22T01:31:23;5;5;
64114;PMS5003;62188;35.640;139.748;2023-12-22T01:33:48;4;4;
64114;PMS5003;62188;35.640;139.748;2023-12-22T01:36:14;6;5;
64114;PMS5003;62188;35.640;139.748;2023-12-22T01:38:40;5;5;
64114;PMS5003;62188;35.640;139.748;2023-12-22T01:41:06;5;5;
64114;PMS5003;62188;35.640;139.748;2023-12-22T01:43:31;4;4;
64114;PMS5003;62188;35.640;139.748;2023-12-22T01:45:57;6;5;
64114;PMS5003;62188;35.640;139.748;2023-12-22T01:48:23;5;5;
64114;PMS5003;62188;35.640;139.748;2023-12-22T01:50:48;9;8;
64114;PMS5003;62188;35.640;139.748;2023-12-22T01:53:14;7;6;
64114;PMS5003;62188;35.640;139.748;2023-12-22T01:55:40;6;6;
64114;PMS5003;62188;35.640;139.748;2023-12-22T01:58:05;6;6;
64114;PMS5003;62188;35.640;139.748;2023-12-22T02:00:30;5;5;
64114;PMS5003;62188;35.640;139.748;2023-12-22T02:02:56;8;6;
64114;PMS5003;62188;35.640;139.748;2023-12-22T02:05:22;6;6;
64114;PMS5003;62188;35.640;139.748;2023-12-22T02:07:47;7;7;
64114;PMS5003;62188;35.640;139.748;2023-12-22T02:10:15;8;7;
64114;PMS5003;62188;35.640;139.748;2023-12-22T02:12:38;5;5;
64114;PMS5003;62188;35.640;139.748;2023-12-22T02:15:04;6;6;
64114;PMS5003;62188;35.640;139.748;2023-12-22T02:17:33;7;6;
64114;PMS5003;62188;35.640;139.748;2023-12-22T02:19:55;5;5;
64114;PMS5003;62188;35.640;139.748;2023-12-22T02:22:22;5;5;
64114;PMS5003;62188;35.640;139.748;2023-12-22T02:24:48;5;4;
64114;PMS5003;62188;35.640;139.748;2023-12-22T02:27:15;7;7;
64114;PMS5003;62188;35.640;139.748;2023-12-22T02:29:40;6;6;
64114;PMS5003;62188;35.640;139.748;2023-12-22T02:32:07;6;6;
64114;PMS5003;62188;35.640;139.748;2023-12-22T02:34:29;6;5;
64114;PMS5003;62188;35.640;139.748;2023-12-22T02:36:54;7;6;
64114;PMS5003;62188;35.640;139.748;2023-12-22T02:39:19;7;5;
64114;PMS5003;62188;35.640;139.748;2023-12-22T02:41:45;5;4;
64114;PMS5003;62188;35.640;139.748;2023-12-22T02:44:10;6;6;
64114;PMS5003;62188;35.640;139.748;2023-12-22T02:46:36;6;6;
64114;PMS5003;62188;35.640;139.748;2023-12-22T02:49:02;5;5;
64114;PMS5003;62188;35.640;139.748;2023-12-22T02:51:27;6;6;
64114;PMS5003;62188;35.640;139.748;2023-12-22T02:53:53;7;7;
64114;PMS5003;62188;35.640;139.748;2023-12-22T02:56:18;8;8;
64114;PMS5003;62188;35.640;139.748;2023-12-22T02:58:44;7;7;
64114;PMS5003;62188;35.640;139.748;2023-12-22T03:01:09;6;6;
64114;PMS5003;62188;35.640;139.748;2023-12-22T03:03:35;9;9;
64114;PMS5003;62188;35.640;139.748;2023-12-22T03:06:02;8;7;
64114;PMS5003;62188;35.640;139.748;2023-12-22T03:08:26;6;6;
64114;PMS5003;62188;35.640;139.748;2023-12-22T03:10:52;9;9;
64114;PMS5003;62188;35.640;139.748;2023-12-22T03:13:17;8;8;
64114;PMS5003;62188;35.640;139.748;2023-12-22T03:15:42;8;7;
64114;PMS5003;62188;35.640;139.748;2023-12-22T03:18:08;9;8;
64114;PMS5003;62188;35.640;139.748;2023-12-22T03:20:34;9;8;
64114;PMS5003;62188;35.640;139.748;2023-12-22T03:22:59;10;9;
64114;PMS5003;62188;35.640;139.748;2023-12-22T03:25:24;6;5;
64114;PMS5003;62188;35.640;139.748;2023-12-22T03:27:50;9;9;
64114;PMS5003;62188;35.640;139.748;2023-12-22T03:30:15;10;10;
64114;PMS5003;62188;35.640;139.748;2023-12-22T03:32:41;7;7;
64114;PMS5003;62188;35.640;139.748;2023-12-22T03:35:07;9;9;
64114;PMS5003;62188;35.640;139.748;2023-12-22T03:37:32;9;9;
64114;PMS5003;62188;35.640;139.748;2023-12-22T03:39:58;10;9;
64114;PMS5003;62188;35.640;139.748;2023-12-22T03:42:23;7;7;
64114;PMS5003;62188;35.640;139.748;2023-12-22T03:44:49;10;10;
64114;PMS5003;62188;35.640;139.748;2023-12-22T03:47:15;8;8;
64114;PMS5003;62188;35.640;139.748;2023-12-22T03:49:40;9;9;
64114;PMS5003;62188;35.640;139.748;2023-12-22T03:52:06;10;9;
64114;PMS5003;62188;35.640;139.748;2023-12-22T03:54:31;10;8;
64114;PMS5003;62188;35.640;139.748;2023-12-22T03:56:57;7;7;
64114;PMS5003;62188;35.640;139.748;2023-12-22T03:59:23;5;5;
64114;PMS5003;62188;35.640;139.748;2023-12-22T04:01:51;5;5;
64114;PMS5003;62188;35.640;139.748;2023-12-22T04:04:14;6;4;
64114;PMS5003;62188;35.640;139.748;2023-12-22T04:06:40;5;5;
64114;PMS5003;62188;35.640;139.748;2023-12-22T04:09:06;2;2;
64114;PMS5003;62188;35.640;139.748;2023-12-22T04:11:31;3;3;
64114;PMS5003;62188;35.640;139.748;2023-12-22T04:13:57;3;3;
64114;PMS5003;62188;35.640;139.748;2023-12-22T04:16:23;4;4;
64114;PMS5003;62188;35.640;139.748;2023-12-22T04:18:48;3;3;
64114;PMS5003;62188;35.640;139.748;2023-12-22T04:21:14;3;3;
64114;PMS5003;62188;35.640;139.748;2023-12-22T04:23:40;1;1;
64114;PMS5003;62188;35.640;139.748;2023-12-22T04:26:05;3;2;
64114;PMS5003;62188;35.640;139.748;2023-12-22T04:28:31;3;2;
64114;PMS5003;62188;35.640;139.748;2023-12-22T04:30:56;1;1;
64114;PMS5003;62188;35.640;139.748;2023-12-22T04:33:22;3;3;
64114;PMS5003;62188;35.640;139.748;2023-12-22T04:35:48;2;2;
64114;PMS5003;62188;35.640;139.748;2023-12-22T04:38:13;2;2;
64114;PMS5003;62188;35.640;139.748;2023-12-22T04:40:39;2;2;
64114;PMS5003;62188;35.640;139.748;2023-12-22T04:43:05;3;2;
64114;PMS5003;62188;35.640;139.748;2023-12-22T04:45:29;2;2;
64114;PMS5003;62188;35.640;139.748;2023-12-22T04:47:55;1;1;
64114;PMS5003;62188;35.640;139.748;2023-12-22T04:50:20;3;3;
64114;PMS5003;62188;35.640;139.748;2023-12-22T04:52:45;2;2;
64114;PMS5003;62188;35.640;139.748;2023-12-22T04:55:11;1;1;
64114;PMS5003;62188;35.640;139.748;2023-12-22T04:57:38;2;2;
64114;PMS5003;62188;35.640;139.748;2023-12-22T05:00:02;2;2;
64114;PMS5003;62188;35.640;139.748;2023-12-22T05:02:29;2;2;
64114;PMS5003;62188;35.640;139.748;2023-12-22T05:04:52;3;3;
64114;PMS5003;62188;35.640;139.748;2023-12-22T05:07:18;2;2;
64114;PMS5003;62188;35.640;139.748;2023-12-22T05:09:44;2;2;
64114;PMS5003;62188;35.640;139.748;2023-12-22T05:12:09;3;2;
64114;PMS5003;62188;35.640;139.748;2023-12-22T05:14:36;3;2;
64114;PMS5003;62188;35.640;139.748;2023-12-22T05:17:01;3;2;
64114;PMS5003;62188;35.640;139.748;2023-12-22T05:19:28;3;2;
64114;PMS5003;62188;35.640;139.748;2023-12-22T05:21:53;2;2;
64114;PMS5003;62188;35.640;139.748;2023-12-22T05:24:18;2;2;
64114;PMS5003;62188;35.640;139.748;2023-12-22T05:26:43;4;2;
64114;PMS5003;62188;35.640;139.748;2023-12-22T05:29:08;2;2;
64114;PMS5003;62188;35.640;139.748;2023-12-22T05:31:34;1;1;
64114;PMS5003;62188;35.640;139.748;2023-12-22T05:34:00;3;2;
64114;PMS5003;62188;35.640;139.748;2023-12-22T05:36:25;2;1;
64114;PMS5003;62188;35.640;139.748;2023-12-22T05:38:51;2;2;
64114;PMS5003;62188;35.640;139.748;2023-12-22T05:41:17;2;1;
64114;PMS5003;62188;35.640;139.748;2023-12-22T05:43:42;2;2;
64114;PMS5003;62188;35.640;139.748;2023-12-22T05:46:08;3;2;
64114;PMS5003;62188;35.640;139.748;2023-12-22T05:48:34;3;3;
64114;PMS5003;62188;35.640;139.748;2023-12-22T05:50:59;1;1;
64114;PMS5003;62188;35.640;139.748;2023-12-22T05:53:25;2;2;
64114;PMS5003;62188;35.640;139.748;2023-12-22T05:55:51;2;2;
64114;PMS5003;62188;35.640;139.748;2023-12-22T05:58:18;0;0;
64114;PMS5003;62188;35.640;139.748;2023-12-22T06:00:43;2;2;
64114;PMS5003;62188;35.640;139.748;2023-12-22T06:03:08;1;1;
64114;PMS5003;62188;35.640;139.748;2023-12-22T06:05:33;1;1;
64114;PMS5003;62188;35.640;139.748;2023-12-22T06:07:59;1;1;
64114;PMS5003;62188;35.640;139.748;2023-12-22T06:10:26;2;2;
64114;PMS5003;62188;35.640;139.748;2023-12-22T06:12:50;2;2;
64114;PMS5003;62188;35.640;139.748;2023-12-22T06:15:16;1;1;
64114;PMS5003;62188;35.640;139.748;2023-12-22T06:17:42;1;1;
64114;PMS5003;62188;35.640;139.748;2023-12-22T06:20:08;1;1;
64114;PMS5003;62188;35.640;139.748;2023-12-22T06:22:33;4;4;
64114;PMS5003;62188;35.640;139.748;2023-12-22T06:24:59;1;1;
64114;PMS5003;62188;35.640;139.748;2023-12-22T06:27:24;2;1;
64114;PMS5003;62188;35.640;139.748;2023-12-22T06:29:50;2;2;
64114;PMS5003;62188;35.640;139.748;2023-12-22T06:32:16;2;2;
64114;PMS5003;62188;35.640;139.748;2023-12-22T06:34:42;1;1;
64114;PMS5003;62188;35.640;139.748;2023-12-22T06:37:07;0;0;
64114;PMS5003;62188;35.640;139.748;2023-12-22T06:39:32;1;1;
64114;PMS5003;62188;35.640;139.748;2023-12-22T06:41:58;1;1;
64114;PMS5003;62188;35.640;139.748;2023-12-22T06:44:24;2;1;
64114;PMS5003;62188;35.640;139.748;2023-12-22T06:46:49;1;1;
64114;PMS5003;62188;35.640;139.748;2023-12-22T06:49:15;1;1;
64114;PMS5003;62188;35.640;139.748;2023-12-22T06:51:40;1;1;
64114;PMS5003;62188;35.640;139.748;2023-12-22T06:54:07;1;1;
64114;PMS5003;62188;35.640;139.748;2023-12-22T06:56:33;1;1;
64114;PMS5003;62188;35.640;139.748;2023-12-22T06:58:58;3;3;
64114;PMS5003;62188;35.640;139.748;2023-12-22T07:01:24;1;1;
64114;PMS5003;62188;35.640;139.748;2023-12-22T07:03:49;1;1;
64114;PMS5003;62188;35.640;139.748;2023-12-22T07:06:15;1;1;
64114;PMS5003;62188;35.640;139.748;2023-12-22T07:08:40;2;2;
64114;PMS5003;62188;35.640;139.748;2023-12-22T07:11:06;3;2;
64114;PMS5003;62188;35.640;139.748;2023-12-22T07:13:31;3;1;
64114;PMS5003;62188;35.640;139.748;2023-12-22T07:15:58;2;2;
64114;PMS5003;62188;35.640;139.748;2023-12-22T07:18:23;1;1;
64114;PMS5003;62188;35.640;139.748;2023-12-22T07:20:48;1;1;
64114;PMS5003;62188;35.640;139.748;2023-12-22T07:23:15;2;2;
64114;PMS5003;62188;35.640;139.748;2023-12-22T07:25:39;2;1;
64114;PMS5003;62188;35.640;139.748;2023-12-22T07:28:06;2;2;
64114;PMS5003;62188;35.640;139.748;2023-12-22T07:30:31;0;0;
64114;PMS5003;62188;35.640;139.748;2023-12-22T07:32:57;1;1;
64114;PMS5003;62188;35.640;139.748;2023-12-22T07:35:22;2;2;
64114;PMS5003;62188;35.640;139.748;2023-12-22T07:37:48;2;1;
64114;PMS5003;62188;35.640;139.748;2023-12-22T07:40:13;3;2;
64114;PMS5003;62188;35.640;139.748;2023-12-22T07:42:39;2;1;
64114;PMS5003;62188;35.640;139.748;2023-12-22T07:45:05;2;2;
64114;PMS5003;62188;35.640;139.748;2023-12-22T07:47:30;1;1;
64114;PMS5003;62188;35.640;139.748;2023-12-22T07:49:56;3;3;
64114;PMS5003;62188;35.640;139.748;2023-12-22T07:52:21;2;2;
64114;PMS5003;62188;35.640;139.748;2023-12-22T07:54:47;0;0;
64114;PMS5003;62188;35.640;139.748;2023-12-22T07:57:14;3;3;
64114;PMS5003;62188;35.640;139.748;2023-12-22T07:59:38;2;2;
64114;PMS5003;62188;35.640;139.748;2023-12-22T08:02:04;2;2;
64114;PMS5003;62188;35.640;139.748;2023-12-22T08:04:30;2;2;
64114;PMS5003;62188;35.640;139.748;2023-12-22T08:06:55;2;2;
64114;PMS5003;62188;35.640;139.748;2023-12-22T08:09:23;3;3;
64114;PMS5003;62188;35.640;139.748;2023-12-22T08:11:47;2;2;
64114;PMS5003;62188;35.640;139.748;2023-12-22T08:14:13;3;3;
64114;PMS5003;62188;35.640;139.748;2023-12-22T08:16:38;2;2;
64114;PMS5003;62188;35.640;139.748;2023-12-22T08:19:04;5;3;
64114;PMS5003;62188;35.640;139.748;2023-12-22T08:21:29;3;2;
64114;PMS5003;62188;35.640;139.748;2023-12-22T08:23:55;2;2;
64114;PMS5003;62188;35.640;139.748;2023-12-22T08:26:22;1;1;
64114;PMS5003;62188;35.640;139.748;2023-12-22T08:28:46;3;3;
64114;PMS5003;62188;35.640;139.748;2023-12-22T08:31:15;2;2;
64114;PMS5003;62188;35.640;139.748;2023-12-22T08:33:39;2;1;
64114;PMS5003;62188;35.640;139.748;2023-12-22T08:36:05;3;3;
64114;PMS5003;62188;35.640;139.748;2023-12-22T08:38:29;3;3;
64114;PMS5003;62188;35.640;139.748;2023-12-22T08:40:54;3;3;
64114;PMS5003;62188;35.640;139.748;2023-12-22T08:43:20;2;2;
64114;PMS5003;62188;35.640;139.748;2023-12-22T08:45:46;4;4;
64114;PMS5003;62188;35.640;139.748;2023-12-22T08:48:12;4;4;
64114;PMS5003;62188;35.640;139.748;2023-12-22T08:50:37;4;3;
64114;PMS5003;62188;35.640;139.748;2023-12-22T08:53:03;4;4;
64114;PMS5003;62188;35.640;139.748;2023-12-22T08:55:29;4;4;
64114;PMS5003;62188;35.640;139.748;2023-12-22T08:57:54;5;5;
64114;PMS5003;62188;35.640;139.748;2023-12-22T09:00:21;4;3;
64114;PMS5003;62188;35.640;139.748;2023-12-22T09:02:46;4;4;
64114;PMS5003;62188;35.640;139.748;2023-12-22T09:05:11;4;4;
64114;PMS5003;62188;35.640;139.748;2023-12-22T09:07:37;4;4;
64114;PMS5003;62188;35.640;139.748;2023-12-22T09:10:03;3;3;
64114;PMS5003;62188;35.640;139.748;2023-12-22T09:12:28;5;4;
64114;PMS5003;62188;35.640;139.748;2023-12-22T09:14:55;4;3;
64114;PMS5003;62188;35.640;139.748;2023-12-22T09:17:20;5;4;
64114;PMS5003;62188;35.640;139.748;2023-12-22T09:19:45;4;4;
64114;PMS5003;62188;35.640;139.748;2023-12-22T09:22:11;3;3;
64114;PMS5003;62188;35.640;139.748;2023-12-22T09:24:37;5;3;
64114;PMS5003;62188;35.640;139.748;2023-12-22T09:27:03;4;4;
64114;PMS5003;62188;35.640;139.748;2023-12-22T09:29:28;3;3;
64114;PMS5003;62188;35.640;139.748;2023-12-22T09:31:54;2;2;
64114;PMS5003;62188;35.640;139.748;2023-12-22T09:34:19;4;4;
64114;PMS5003;62188;35.640;139.748;2023-12-22T09:36:45;4;4;
64114;PMS5003;62188;35.640;139.748;2023-12-22T09:39:11;2;2;
64114;PMS5003;62188;35.640;139.748;2023-12-22T09:41:36;3;3;
64114;PMS5003;62188;35.640;139.748;2023-12-22T09:44:02;2;1;
64114;PMS5003;62188;35.640;139.748;2023-12-22T09:46:28;3;3;
64114;PMS5003;62188;35.640;139.748;2023-12-22T09:48:54;4;3;
64114;PMS5003;62188;35.640;139.748;2023-12-22T09:51:19;2;2;
64114;PMS5003;62188;35.640;139.748;2023-12-22T09:53:45;3;3;
64114;PMS5003;62188;35.640;139.748;2023-12-22T09:56:11;2;2;
64114;PMS5003;62188;35.640;139.748;2023-12-22T09:58:36;3;3;
64114;PMS5003;62188;35.640;139.748;2023-12-22T10:01:02;1;1;
64114;PMS5003;62188;35.640;139.748;2023-12-22T10:03:27;2;2;
64114;PMS5003;62188;35.640;139.748;2023-12-22T10:05:53;3;3;
64114;PMS5003;62188;35.640;139.748;2023-12-22T10:08:19;2;2;
64114;PMS5003;62188;35.640;139.748;2023-12-22T10:10:44;4;3;
64114;PMS5003;62188;35.640;139.748;2023-12-22T10:13:11;4;2;
64114;PMS5003;62188;35.640;139.748;2023-12-22T10:15:37;4;3;
64114;PMS5003;62188;35.640;139.748;2023-12-22T10:18:01;2;2;
64114;PMS5003;62188;35.640;139.748;2023-12-22T10:20:28;3;3;
64114;PMS5003;62188;35.640;139.748;2023-12-22T10:22:53;2;2;
64114;PMS5003;62188;35.640;139.748;2023-12-22T10:25:20;3;3;
64114;PMS5003;62188;35.640;139.748;2023-12-22T10:27:44;2;2;
64114;PMS5003;62188;35.640;139.748;2023-12-22T10:30:10;4;4;
64114;PMS5003;62188;35.640;139.748;2023-12-22T10:32:35;2;2;
64114;PMS5003;62188;35.640;139.748;2023-12-22T10:35:01;3;3;
64114;PMS5003;62188;35.640;139.748;2023-12-22T10:37:27;3;3;
64114;PMS5003;62188;35.640;139.748;2023-12-22T10:39:52;2;2;
64114;PMS5003;62188;35.640;139.748;2023-12-22T10:42:18;3;3;
64114;PMS5003;62188;35.640;139.748;2023-12-22T10:44:45;3;3;
64114;PMS5003;62188;35.640;139.748;2023-12-22T10:47:10;2;2;
64114;PMS5003;62188;35.640;139.748;2023-12-22T10:49:37;3;3;
64114;PMS5003;62188;35.640;139.748;2023-12-22T10:52:01;3;3;
64114;PMS5003;62188;35.640;139.748;2023-12-22T10:54:26;4;4;
64114;PMS5003;62188;35.640;139.748;2023-12-22T10:56:55;4;4;
64114;PMS5003;62188;35.640;139.748;2023-12-22T10:59:18;4;4;
64114;PMS5003;62188;35.640;139.748;2023-12-22T11:01:45;5;4;
64114;PMS5003;62188;35.640;139.748;2023-12-22T11:04:11;2;2;
64114;PMS5003;62188;35.640;139.748;2023-12-22T11:06:35;1;1;
64114;PMS5003;62188;35.640;139.748;2023-12-22T11:09:01;2;2;
64114;PMS5003;62188;35.640;139.748;2023-12-22T11:11:27;3;2;
64114;PMS5003;62188;35.640;139.748;2023-12-22T11:13:52;3;3;
64114;PMS5003;62188;35.640;139.748;2023-12-22T11:16:18;4;4;
64114;PMS5003;62188;35.640;139.748;2023-12-22T11:18:44;2;2;
64114;PMS5003;62188;35.640;139.748;2023-12-22T11:21:09;2;2;
64114;PMS5003;62188;35.640;139.748;2023-12-22T11:23:35;3;3;
64114;PMS5003;62188;35.640;139.748;2023-12-22T11:26:01;3;3;
64114;PMS5003;62188;35.640;139.748;2023-12-22T11:28:26;2;2;
64114;PMS5003;62188;35.640;139.748;2023-12-22T11:30:53;4;3;
64114;PMS5003;62188;35.640;139.748;2023-12-22T11:33:17;1;1;
64114;PMS5003;62188;35.640;139.748;2023-12-22T11:35:44;4;4;
64114;PMS5003;62188;35.640;139.748;2023-12-22T11:38:09;3;3;
64114;PMS5003;62188;35.640;139.748;2023-12-22T11:40:35;3;3;
64114;PMS5003;62188;35.640;139.748;2023-12-22T11:43:02;3;3;
64114;PMS5003;62188;35.640;139.748;2023-12-22T11:45:26;3;3;
64114;PMS5003;62188;35.640;139.748;2023-12-22T11:47:52;2;2;
64114;PMS5003;62188;35.640;139.748;2023-12-22T11:52:44;3;2;
64114;PMS5003;62188;35.640;139.748;2023-12-22T11:55:09;4;3;
64114;PMS5003;62188;35.640;139.748;2023-12-22T11:57:35;4;3;
64114;PMS5003;62188;35.640;139.748;2023-12-22T12:00:02;2;2;
64114;PMS5003;62188;35.640;139.748;2023-12-22T12:02:27;5;3;
64114;PMS5003;62188;35.640;139.748;2023-12-22T12:04:52;3;3;
64114;PMS5003;62188;35.640;139.748;2023-12-22T12:09:47;3;3;
64114;PMS5003;62188;35.640;139.748;2023-12-22T12:12:11;4;4;
64114;PMS5003;62188;35.640;139.748;2023-12-22T12:14:37;4;4;
64114;PMS5003;62188;35.640;139.748;2023-12-22T12:17:06;7;7;
64114;PMS5003;62188;35.640;139.748;2023-12-22T12:19:27;6;6;
64114;PMS5003;62188;35.640;139.748;2023-12-22T12:21:52;3;3;
64114;PMS5003;62188;35.640;139.748;2023-12-22T12:24:18;3;3;
64114;PMS5003;62188;35.640;139.748;2023-12-22T12:26:44;4;4;
64114;PMS5003;62188;35.640;139.748;2023-12-22T12:29:09;2;2;
64114;PMS5003;62188;35.640;139.748;2023-12-22T12:31:36;3;3;
64114;PMS5003;62188;35.640;139.748;2023-12-22T12:34:01;2;2;
64114;PMS5003;62188;35.640;139.748;2023-12-22T12:36:26;2;2;
64114;PMS5003;62188;35.640;139.748;2023-12-22T12:38:54;1;1;
64114;PMS5003;62188;35.640;139.748;2023-12-22T12:41:17;0;0;
64114;PMS5003;62188;35.640;139.748;2023-12-22T12:43:43;1;1;
64114;PMS5003;62188;35.640;139.748;2023-12-22T12:46:09;2;2;
64114;PMS5003;62188;35.640;139.748;2023-12-22T12:48:35;2;2;
64114;PMS5003;62188;35.640;139.748;2023-12-22T12:51:02;1;1;
64114;PMS5003;62188;35.640;139.748;2023-12-22T12:53:27;1;1;
64114;PMS5003;62188;35.640;139.748;2023-12-22T12:55:55;0;0;
64114;PMS5003;62188;35.640;139.748;2023-12-22T12:58:18;0;0;
64114;PMS5003;62188;35.640;139.748;2023-12-22T13:00:44;2;1;
64114;PMS5003;62188;35.640;139.748;2023-12-22T13:03:09;1;1;
64114;PMS5003;62188;35.640;139.748;2023-12-22T13:05:35;0;0;
64114;PMS5003;62188;35.640;139.748;2023-12-22T13:10:26;0;0;
64114;PMS5003;62188;35.640;139.748;2023-12-22T13:12:53;1;1;
64114;PMS5003;62188;35.640;139.748;2023-12-22T13:15:18;1;1;
64114;PMS5003;62188;35.640;139.748;2023-12-22T13:17:43;0;0;
64114;PMS5003;62188;35.640;139.748;2023-12-22T13:20:10;0;0;
64114;PMS5003;62188;35.640;139.748;2023-12-22T13:22:35;3;2;
64114;PMS5003;62188;35.640;139.748;2023-12-22T13:25:01;2;2;
64114;PMS5003;62188;35.640;139.748;2023-12-22T13:27:27;0;0;
64114;PMS5003;62188;35.640;139.748;2023-12-22T13:29:52;2;1;
64114;PMS5003;62188;35.640;139.748;2023-12-22T13:32:18;2;1;
64114;PMS5003;62188;35.640;139.748;2023-12-22T13:34:48;3;2;
64114;PMS5003;62188;35.640;139.748;2023-12-22T13:37:10;3;3;
64114;PMS5003;62188;35.640;139.748;2023-12-22T13:39:36;3;2;
64114;PMS5003;62188;35.640;139.748;2023-12-22T13:42:01;2;2;
64114;PMS5003;62188;35.640;139.748;2023-12-22T13:44:26;1;1;
64114;PMS5003;62188;35.640;139.748;2023-12-22T13:46:53;1;1;
64114;PMS5003;62188;35.640;139.748;2023-12-22T13:49:18;3;3;
64114;PMS5003;62188;35.640;139.748;2023-12-22T13:51:45;1;1;
64114;PMS5003;62188;35.640;139.748;2023-12-22T13:54:11;2;2;
64114;PMS5003;62188;35.640;139.748;2023-12-22T13:56:35;1;1;
64114;PMS5003;62188;35.640;139.748;2023-12-22T13:59:01;1;1;
64114;PMS5003;62188;35.640;139.748;2023-12-22T14:01:28;2;2;
64114;PMS5003;62188;35.640;139.748;2023-12-22T14:03:53;1;1;
64114;PMS5003;62188;35.640;139.748;2023-12-22T14:06:18;1;1;
64114;PMS5003;62188;35.640;139.748;2023-12-22T14:08:45;1;1;
64114;PMS5003;62188;35.640;139.748;2023-12-22T14:11:10;0;0;
64114;PMS5003;62188;35.640;139.748;2023-12-22T14:13:36;0;0;
64114;PMS5003;62188;35.640;139.748;2023-12-22T14:16:01;1;1;
64114;PMS5003;62188;35.640;139.748;2023-12-22T14:18:27;0;0;
64114;PMS5003;62188;35.640;139.748;2023-12-22T14:20:53;0;0;
64114;PMS5003;62188;35.640;139.748;2023-12-22T14:23:19;1;1;
64114;PMS5003;62188;35.640;139.748;2023-12-22T14:25:44;2;1;
64114;PMS5003;62188;35.640;139.748;2023-12-22T14:28:10;1;1;
64114;PMS5003;62188;35.640;139.748;2023-12-22T14:30:37;3;3;
64114;PMS5003;62188;35.640;139.748;2023-12-22T14:33:01;0;0;
64114;PMS5003;62188;35.640;139.748;2023-12-22T14:35:27;1;1;
64114;PMS5003;62188;35.640;139.748;2023-12-22T14:37:53;1;1;
64114;PMS5003;62188;35.640;139.748;2023-12-22T14:40:19;1;1;
64114;PMS5003;62188;35.640;139.748;2023-12-22T14:42:44;1;1;
64114;PMS5003;62188;35.640;139.748;2023-12-22T14:45:12;6;5;
64114;PMS5003;62188;35.640;139.748;2023-12-22T14:47:36;1;1;
64114;PMS5003;62188;35.640;139.748;2023-12-22T14:50:02;1;1;
64114;PMS5003;62188;35.640;139.748;2023-12-22T14:52:27;5;5;
64114;PMS5003;62188;35.640;139.748;2023-12-22T14:54:53;0;0;
64114;PMS5003;62188;35.640;139.748;2023-12-22T14:57:20;1;1;
64114;PMS5003;62188;35.640;139.748;2023-12-22T14:59:45;1;1;
64114;PMS5003;62188;35.640;139.748;2023-12-22T15:02:10;2;2;
64114;PMS5003;62188;35.640;139.748;2023-12-22T15:04:36;1;1;
64114;PMS5003;62188;35.640;139.748;2023-12-22T15:07:02;4;4;
64114;PMS5003;62188;35.640;139.748;2023-12-22T15:09:28;1;1;
64114;PMS5003;62188;35.640;139.748;2023-12-22T15:11:55;5;4;
64114;PMS5003;62188;35.640;139.748;2023-12-22T15:14:19;5;5;
64114;PMS5003;62188;35.640;139.748;2023-12-22T15:16:45;1;1;
64114;PMS5003;62188;35.640;139.748;2023-12-22T15:19:11;1;1;
64114;PMS5003;62188;35.640;139.748;2023-12-22T15:21:36;6;5;
64114;PMS5003;62188;35.640;139.748;2023-12-22T15:24:02;1;1;
64114;PMS5003;62188;35.640;139.748;2023-12-22T15:26:29;7;6;
64114;PMS5003;62188;35.640;139.748;2023-12-22T15:28:53;10;10;
64114;PMS5003;62188;35.640;139.748;2023-12-22T15:31:19;2;2;
64114;PMS5003;62188;35.640;139.748;2023-12-22T15:33:45;3;3;
64114;PMS5003;62188;35.640;139.748;2023-12-22T15:36:10;4;4;
64114;PMS5003;62188;35.640;139.748;2023-12-22T15:38:37;6;5;
64114;PMS5003;62188;35.640;139.748;2023-12-22T15:41:05;1;1;
64114;PMS5003;62188;35.640;139.748;2023-12-22T15:43:28;2;2;
64114;PMS5003;62188;35.640;139.748;2023-12-22T15:45:54;2;2;
64114;PMS5003;62188;35.640;139.748;2023-12-22T15:48:20;1;1;
64114;PMS5003;62188;35.640;139.748;2023-12-22T15:50:45;1;1;
64114;PMS5003;62188;35.640;139.748;2023-12-22T15:53:11;3;3;
64114;PMS5003;62188;35.640;139.748;2023-12-22T15:55:37;7;7;
64114;PMS5003;62188;35.640;139.748;2023-12-22T15:58:02;5;5;
64114;PMS5003;62188;35.640;139.748;2023-12-22T16:00:29;7;6;
64114;PMS5003;62188;35.640;139.748;2023-12-22T16:02:54;2;2;
64114;PMS5003;62188;35.640;139.748;2023-12-22T16:05:21;7;7;
64114;PMS5003;62188;35.640;139.748;2023-12-22T16:07:46;6;5;
64114;PMS5003;62188;35.640;139.748;2023-12-22T16:10:11;4;4;
64114;PMS5003;62188;35.640;139.748;2023-12-22T16:12:37;4;4;